createdAt,value
2019-04-19T00:00:42.585Z,45.92
2019-04-19T00:03:19.116Z,45.95
2019-04-19T00:06:13.746Z,46.42
2019-04-19T00:08:58.636Z,46.07
2019-04-19T00:11:22.238Z,45.93
2019-04-19T00:13:43.039Z,46.05
2019-04-19T00:16:13.171Z,46.63
2019-04-19T00:19:10.459Z,46.47
2019-04-19T00:21:33.767Z,46.51
2019-04-19T00:23:51.632Z,46.58
2019-04-19T00:26:20.956Z,46.83
2019-04-19T00:28:54.892Z,46.88
2019-04-19T00:31:34.127Z,47.10
2019-04-19T00:33:57.197Z,47.20
2019-04-19T00:39:24.437Z,47.16
2019-04-19T00:42:01.527Z,46.96
2019-04-19T00:44:33.030Z,46.93
2019-04-19T00:47:01.490Z,46.96
2019-04-19T00:49:26.093Z,47.37
2019-04-19T00:52:00.158Z,47.78
2019-04-19T00:54:27.266Z,47.46
2019-04-19T00:56:57.868Z,47.32
2019-04-19T00:59:22.809Z,47.34
2019-04-19T01:01:59.201Z,47.50
2019-04-19T01:04:28.122Z,47.00
2019-04-19T01:07:00.532Z,46.88
2019-04-19T01:09:38.819Z,46.69
2019-04-19T01:12:15.443Z,46.69
2019-04-19T01:14:50.581Z,46.99
2019-04-19T01:17:29.846Z,46.89
2019-04-19T01:19:51.935Z,46.92
2019-04-19T01:22:21.848Z,47.52
2019-04-19T01:24:50.132Z,47.43
2019-04-19T01:27:24.927Z,47.42
2019-04-19T01:29:55.935Z,47.59
2019-04-19T01:32:26.545Z,47.46
2019-04-19T01:35:00.915Z,47.32
2019-04-19T01:37:29.912Z,47.63
2019-04-19T01:40:15.871Z,48.24
2019-04-19T01:42:50.671Z,48.14
2019-04-19T01:45:34.226Z,48.05
2019-04-19T01:48:29.755Z,48.21
2019-04-19T01:51:06.181Z,48.06
2019-04-19T01:53:34.509Z,48.20
2019-04-19T01:55:59.210Z,48.49
2019-04-19T01:58:24.397Z,48.26
2019-04-19T02:00:58.311Z,48.48
2019-04-19T02:03:33.437Z,48.43
2019-04-19T02:06:05.133Z,48.27
2019-04-19T02:08:33.359Z,48.32
2019-04-19T02:11:56.546Z,48.83
2019-04-19T02:14:23.655Z,48.35
2019-04-19T02:16:55.876Z,48.83
2019-04-19T02:19:25.097Z,48.77
2019-04-19T02:21:53.979Z,48.53
2019-04-19T02:24:30.608Z,49.13
2019-04-19T02:27:02.051Z,49.21
2019-04-19T02:29:31.309Z,49.47
2019-04-19T02:34:54.367Z,49.37
2019-04-19T02:37:24.651Z,49.92
2019-04-19T02:42:44.551Z,50.19
2019-04-19T02:45:03.788Z,50.17
2019-04-19T02:50:12.969Z,50.40
2019-04-19T02:55:12.695Z,50.16
2019-04-19T02:57:48.298Z,49.54
2019-04-19T03:07:38.553Z,50.58
2019-04-19T03:10:12.909Z,50.40
2019-04-19T03:13:00.301Z,51.26
2019-04-19T03:15:39.339Z,51.14
2019-04-19T03:18:11.962Z,51.17
2019-04-19T03:20:30.295Z,51.62
2019-04-19T03:23:03.069Z,51.41
2019-04-19T03:25:31.285Z,52.00
2019-04-19T03:28:03.687Z,51.47
2019-04-19T03:30:42.047Z,51.86
2019-04-19T03:33:24.965Z,51.86
2019-04-19T03:35:50.060Z,51.74
2019-04-19T03:38:17.227Z,51.83
2019-04-19T03:40:50.807Z,51.90
2019-04-19T03:43:26.566Z,51.83
2019-04-19T03:45:57.678Z,52.08
2019-04-19T03:48:29.664Z,52.33
2019-04-19T03:51:01.869Z,52.36
2019-04-19T03:53:30.999Z,52.51
2019-04-19T03:56:06.247Z,52.79
2019-04-19T03:58:16.938Z,52.77
2019-04-19T04:00:45.087Z,52.83
2019-04-19T04:03:24.358Z,52.65
2019-04-19T04:05:49.030Z,53.08
2019-04-19T04:08:25.813Z,52.76
2019-04-19T04:11:08.132Z,52.99
2019-04-19T04:14:07.462Z,52.57
2019-04-19T04:16:33.632Z,53.00
2019-04-19T04:18:57.494Z,53.11
2019-04-19T04:21:34.502Z,52.72
2019-04-19T04:24:12.119Z,52.98
2019-04-19T04:26:40.386Z,52.45
2019-04-19T04:29:12.108Z,53.10
2019-04-19T04:31:45.815Z,52.92
2019-04-19T04:34:23.083Z,53.26
2019-04-19T04:36:54.499Z,52.70
2019-04-19T04:39:13.430Z,52.60
2019-04-19T04:41:46.029Z,52.77
2019-04-19T04:44:33.306Z,52.62
2019-04-19T04:47:10.221Z,52.98
2019-04-19T04:49:59.365Z,53.37
2019-04-19T04:52:21.293Z,53.14
2019-04-19T04:54:46.672Z,53.01
2019-04-19T04:57:36.902Z,53.23
2019-04-19T05:00:00.655Z,53.21
2019-04-19T05:02:46.186Z,52.90
2019-04-19T05:05:19.783Z,52.59
2019-04-19T05:07:53.186Z,52.10
2019-04-19T05:10:25.920Z,52.09
2019-04-19T05:13:10.707Z,51.66
2019-04-19T05:15:41.670Z,52.03
2019-04-19T05:18:04.967Z,52.65
2019-04-19T05:20:30.282Z,52.44
2019-04-19T05:23:05.756Z,52.09
2019-04-19T05:25:41.432Z,51.97
2019-04-19T05:28:09.576Z,51.79
2019-04-19T05:30:33.143Z,51.30
2019-04-19T05:33:04.747Z,51.61
2019-04-19T05:35:45.182Z,50.90
2019-04-19T05:38:12.423Z,51.59
2019-04-19T05:40:47.452Z,52.20
2019-04-19T05:43:52.590Z,51.55
2019-04-19T05:46:10.137Z,51.69
2019-04-19T05:48:28.456Z,51.26
2019-04-19T05:51:16.663Z,51.57
2019-04-19T05:53:27.922Z,51.24
2019-04-19T05:55:49.844Z,50.36
2019-04-19T05:58:31.405Z,50.62
2019-04-19T06:01:04.621Z,50.22
2019-04-19T06:03:32.516Z,49.68
2019-04-19T06:06:26.198Z,49.92
2019-04-19T06:08:30.813Z,49.48
2019-04-19T06:11:01.199Z,49.16
2019-04-19T06:13:29.758Z,48.92
2019-04-19T06:16:17.769Z,48.56
2019-04-19T06:18:46.051Z,48.33
2019-04-19T06:21:24.770Z,48.22
2019-04-19T06:24:01.234Z,47.75
2019-04-19T06:31:32.549Z,46.81
2019-04-19T06:33:57.651Z,47.00
2019-04-19T06:36:14.548Z,46.18
2019-04-19T06:38:44.819Z,46.29
2019-04-19T06:41:20.408Z,45.19
2019-04-19T06:43:58.951Z,44.70
2019-04-19T06:46:32.693Z,44.62
2019-04-19T06:48:59.662Z,44.19
2019-04-19T06:51:32.801Z,43.54
2019-04-19T06:53:58.827Z,42.50
2019-04-19T06:56:31.839Z,42.38
2019-04-19T06:59:07.128Z,41.90
2019-04-19T07:01:38.299Z,41.41
2019-04-19T07:03:59.971Z,41.40
2019-04-19T07:06:43.918Z,41.28
2019-04-19T07:09:26.529Z,40.68
2019-04-19T07:11:59.082Z,40.50
2019-04-19T07:14:11.897Z,40.14
2019-04-19T07:16:59.712Z,39.77
2019-04-19T07:19:26.105Z,39.70
2019-04-19T07:21:55.246Z,39.38
2019-04-19T07:24:33.950Z,38.64
2019-04-19T07:26:57.876Z,38.58
2019-04-19T07:29:13.221Z,38.65
2019-04-19T07:31:47.312Z,38.36
2019-04-19T07:34:35.022Z,38.17
2019-04-19T07:37:11.981Z,37.79
2019-04-19T07:39:38.868Z,37.36
2019-04-19T07:42:12.116Z,37.54
2019-04-19T07:44:38.731Z,36.73
2019-04-19T07:47:16.317Z,36.09
2019-04-19T07:49:40.489Z,36.23
2019-04-19T07:52:14.440Z,36.49
2019-04-19T07:54:38.628Z,35.99
2019-04-19T07:57:41.730Z,35.25
2019-04-19T08:00:09.818Z,35.36
2019-04-19T08:05:11.911Z,34.64
2019-04-19T08:10:10.811Z,34.40
2019-04-19T08:27:40.207Z,32.97
2019-04-19T08:30:04.478Z,32.83
2019-04-19T08:32:34.355Z,32.11
2019-04-19T08:35:09.392Z,31.96
2019-04-19T08:37:41.006Z,31.69
2019-04-19T08:40:35.350Z,31.86
2019-04-19T08:43:03.405Z,30.12
2019-04-19T08:45:20.630Z,30.72
2019-04-19T08:48:11.872Z,31.32
2019-04-19T08:50:53.117Z,30.86
2019-04-19T08:53:35.973Z,30.70
2019-04-19T08:56:07.966Z,31.27
2019-04-19T08:58:36.065Z,30.73
2019-04-19T09:01:34.773Z,30.17
2019-04-19T09:03:51.217Z,29.97
2019-04-19T09:06:56.570Z,30.14
2019-04-19T09:08:48.721Z,29.55
2019-04-19T09:11:22.510Z,28.94
2019-04-19T09:13:55.859Z,28.65
2019-04-19T09:16:25.569Z,29.14
2019-04-19T09:19:03.465Z,28.55
2019-04-19T09:21:21.870Z,28.24
2019-04-19T09:23:48.835Z,28.47
2019-04-19T09:26:30.809Z,27.87
2019-04-19T09:29:14.338Z,28.15
2019-04-19T09:31:34.482Z,27.56
2019-04-19T09:33:54.806Z,26.85
2019-04-19T09:36:30.531Z,26.63
2019-04-19T09:39:08.392Z,26.69
2019-04-19T09:41:34.689Z,26.18
2019-04-19T09:44:08.179Z,25.25
2019-04-19T09:46:28.173Z,24.94
2019-04-19T09:49:13.110Z,24.71
2019-04-19T09:51:47.880Z,25.48
2019-04-19T09:54:19.158Z,24.96
2019-04-19T09:56:50.634Z,23.79
2019-04-19T09:59:14.279Z,24.51
2019-04-19T10:01:43.825Z,24.33
2019-04-19T10:04:09.384Z,24.13
2019-04-19T10:06:40.661Z,23.79
2019-04-19T10:09:17.070Z,23.58
2019-04-19T10:11:46.188Z,23.01
2019-04-19T10:14:15.599Z,23.23
2019-04-19T10:16:46.940Z,22.89
2019-04-19T10:19:16.931Z,23.35
2019-04-19T10:21:49.324Z,23.15
2019-04-19T10:24:22.580Z,22.41
2019-04-19T10:26:57.327Z,22.19
2019-04-19T10:29:32.435Z,21.69
2019-04-19T10:32:06.601Z,21.37
2019-04-19T10:34:36.687Z,20.95
2019-04-19T10:37:06.477Z,20.21
2019-04-19T10:39:37.332Z,20.41
2019-04-19T10:42:10.225Z,21.55
2019-04-19T10:44:40.315Z,21.29
2019-04-19T10:47:10.354Z,20.69
2019-04-19T10:49:46.998Z,20.50
2019-04-19T10:52:25.612Z,20.97
2019-04-19T10:54:57.306Z,20.70
2019-04-19T10:57:27.690Z,20.97
2019-04-19T11:00:01.957Z,21.60
2019-04-19T11:02:34.049Z,21.83
2019-04-19T11:05:07.051Z,21.24
2019-04-19T11:07:39.574Z,21.70
2019-04-19T11:10:10.096Z,21.00
2019-04-19T11:12:40.855Z,21.02
2019-04-19T11:15:11.018Z,20.04
2019-04-19T11:17:41.441Z,20.34
2019-04-19T11:20:24.703Z,21.09
2019-04-19T11:22:44.438Z,20.67
2019-04-19T11:25:14.473Z,20.89
2019-04-19T11:27:44.856Z,21.30
2019-04-19T11:30:29.254Z,21.26
2019-04-19T11:32:59.447Z,20.20
2019-04-19T11:35:31.632Z,19.70
2019-04-19T11:38:04.820Z,19.30
2019-04-19T11:40:35.355Z,19.44
2019-04-19T11:43:05.389Z,18.83
2019-04-19T11:45:35.796Z,18.98
2019-04-19T11:48:05.755Z,18.88
2019-04-19T11:50:35.865Z,18.58
2019-04-19T11:53:12.544Z,18.84
2019-04-19T11:55:44.451Z,19.05
2019-04-19T11:58:16.722Z,20.10
2019-04-19T12:00:58.147Z,20.18
2019-04-19T12:03:29.936Z,19.57
2019-04-19T12:06:00.403Z,18.54
2019-04-19T12:08:33.135Z,18.33
2019-04-19T12:11:04.218Z,17.99
2019-04-19T12:13:36.436Z,18.72
2019-04-19T12:16:06.235Z,18.92
2019-04-19T12:18:38.795Z,18.54
2019-04-19T12:21:11.370Z,18.33
2019-04-19T12:23:41.753Z,18.93
2019-04-19T12:26:11.638Z,18.87
2019-04-19T12:28:41.751Z,18.76
2019-04-19T12:31:11.588Z,19.14
2019-04-19T12:33:41.754Z,18.80
2019-04-19T12:36:12.826Z,18.31
2019-04-19T12:38:44.130Z,18.16
2019-04-19T12:41:14.298Z,18.30
2019-04-19T12:43:45.789Z,18.51
2019-04-19T12:46:16.918Z,18.18
2019-04-19T12:48:47.904Z,18.05
2019-04-19T12:51:19.249Z,18.36
2019-04-19T12:53:50.720Z,18.83
2019-04-19T12:56:22.390Z,19.36
2019-04-19T12:58:53.861Z,19.44
2019-04-19T13:01:26.055Z,19.32
2019-04-19T13:04:00.401Z,19.13
2019-04-19T13:06:31.850Z,19.03
2019-04-19T13:09:01.724Z,18.89
2019-04-19T13:11:33.174Z,18.76
2019-04-19T13:14:05.749Z,18.39
2019-04-19T13:16:36.588Z,18.73
2019-04-19T13:19:08.241Z,18.08
2019-04-19T13:21:38.609Z,18.05
2019-04-19T13:24:08.838Z,18.37
2019-04-19T13:26:41.194Z,18.32
2019-04-19T13:29:11.477Z,17.89
2019-04-19T13:31:43.230Z,17.97
2019-04-19T13:34:13.455Z,18.19
2019-04-19T13:36:49.000Z,18.67
2019-04-19T13:39:32.041Z,18.38
2019-04-19T13:42:06.318Z,18.30
2019-04-19T13:44:36.690Z,18.08
2019-04-19T13:47:06.822Z,18.77
2019-04-19T13:49:36.891Z,18.78
2019-04-19T13:52:08.299Z,18.65
2019-04-19T13:54:39.191Z,18.61
2019-04-19T13:57:10.094Z,19.13
2019-04-19T13:59:50.174Z,18.47
2019-04-19T14:02:12.663Z,18.71
2019-04-19T14:04:43.746Z,18.68
2019-04-19T14:07:14.880Z,18.64
2019-04-19T14:09:47.654Z,18.93
2019-04-19T14:12:18.722Z,19.03
2019-04-19T14:14:48.940Z,19.08
2019-04-19T14:17:19.906Z,19.03
2019-04-19T14:19:49.453Z,18.80
2019-04-19T14:22:19.298Z,18.41
2019-04-19T14:24:50.957Z,18.20
2019-04-19T14:27:21.483Z,18.17
2019-04-19T14:29:51.344Z,18.66
2019-04-19T14:32:21.208Z,18.39
2019-04-19T14:34:51.930Z,18.50
2019-04-19T14:37:22.437Z,19.19
2019-04-19T14:39:52.466Z,18.84
2019-04-19T14:42:25.057Z,18.42
2019-04-19T14:44:55.615Z,18.74
2019-04-19T14:47:26.699Z,18.86
2019-04-19T14:49:56.795Z,18.58
2019-04-19T14:52:28.044Z,18.58
2019-04-19T14:55:01.294Z,18.71
2019-04-19T14:57:32.400Z,19.00
2019-04-19T15:00:03.240Z,18.92
2019-04-19T15:02:51.721Z,18.81
2019-04-19T15:05:35.280Z,18.32
2019-04-19T15:08:06.302Z,18.44
2019-04-19T15:10:37.591Z,18.64
2019-04-19T15:13:07.391Z,18.96
2019-04-19T15:15:37.805Z,19.02
2019-04-19T15:18:08.799Z,18.96
2019-04-19T15:20:38.780Z,19.68
2019-04-19T15:23:08.592Z,19.59
2019-04-19T15:25:38.377Z,19.42
2019-04-19T15:28:08.846Z,19.66
2019-04-19T15:30:41.891Z,19.80
2019-04-19T15:33:10.410Z,19.52
2019-04-19T15:35:40.009Z,19.86
2019-04-19T15:38:09.891Z,20.05
2019-04-19T15:40:40.401Z,20.06
2019-04-19T15:43:10.739Z,20.14
2019-04-19T15:45:41.120Z,20.16
2019-04-19T15:48:10.998Z,20.14
2019-04-19T15:50:42.904Z,20.29
2019-04-19T15:53:12.642Z,20.14
2019-04-19T15:55:44.198Z,19.96
2019-04-19T15:58:14.719Z,19.75
2019-04-19T16:00:50.822Z,20.22
2019-04-19T16:03:38.728Z,20.32
2019-04-19T16:06:14.219Z,20.43
2019-04-19T16:09:01.791Z,20.75
2019-04-19T16:11:46.918Z,20.41
2019-04-19T16:14:17.686Z,20.78
2019-04-19T16:16:47.558Z,20.80
2019-04-19T16:19:20.524Z,20.67
2019-04-19T16:21:55.094Z,20.92
2019-04-19T16:24:23.156Z,20.98
2019-04-19T16:26:53.334Z,20.88
2019-04-19T16:29:33.679Z,20.93
2019-04-19T16:31:54.522Z,21.33
2019-04-19T16:34:27.164Z,21.40
2019-04-19T16:36:58.264Z,21.33
2019-04-19T16:39:30.118Z,21.55
2019-04-19T16:42:00.897Z,21.56
2019-04-19T16:44:31.855Z,21.74
2019-04-19T16:47:01.804Z,21.85
2019-04-19T16:49:32.436Z,21.84
2019-04-19T16:52:02.751Z,22.28
2019-04-19T16:54:36.286Z,22.29
2019-04-19T16:57:15.926Z,22.94
2019-04-19T16:59:37.807Z,23.00
2019-04-19T17:02:08.998Z,23.14
2019-04-19T17:04:38.841Z,23.29
2019-04-19T17:07:08.847Z,23.42
2019-04-19T17:09:40.773Z,23.47
2019-04-19T17:12:10.834Z,23.90
2019-04-19T17:14:41.006Z,23.80
2019-04-19T17:17:28.781Z,23.91
2019-04-19T17:20:00.516Z,23.81
2019-04-19T17:22:43.016Z,24.17
2019-04-19T17:25:14.819Z,23.93
2019-04-19T17:27:45.186Z,24.19
2019-04-19T17:30:20.183Z,23.81
2019-04-19T17:32:50.335Z,24.35
2019-04-19T17:35:20.488Z,24.24
2019-04-19T17:37:50.514Z,24.42
2019-04-19T17:40:20.690Z,24.83
2019-04-19T17:42:50.798Z,24.58
2019-04-19T17:45:20.659Z,24.97
2019-04-19T17:47:54.491Z,24.83
2019-04-19T17:50:24.971Z,24.87
2019-04-19T17:52:55.223Z,25.18
2019-04-19T17:55:31.625Z,25.47
2019-04-19T17:57:57.070Z,25.54
2019-04-19T18:00:28.264Z,25.77
2019-04-19T18:03:01.282Z,25.97
2019-04-19T18:05:31.864Z,25.79
2019-04-19T18:08:02.156Z,25.95
2019-04-19T18:10:42.908Z,26.14
2019-04-19T18:13:03.658Z,26.15
2019-04-19T18:15:34.873Z,26.44
2019-04-19T18:18:10.032Z,27.07
2019-04-19T18:20:39.265Z,27.43
2019-04-19T18:23:21.388Z,27.74
2019-04-19T18:25:43.271Z,28.42
2019-04-19T18:28:14.918Z,28.80
2019-04-19T18:30:51.601Z,29.32
2019-04-19T18:33:20.193Z,29.59
2019-04-19T18:36:00.917Z,29.40
2019-04-19T18:38:28.062Z,29.74
2019-04-19T18:41:02.914Z,30.02
2019-04-19T18:43:41.639Z,30.18
2019-04-19T18:46:04.825Z,30.33
2019-04-19T18:48:35.681Z,30.57
2019-04-19T18:51:06.788Z,30.58
2019-04-19T18:53:45.101Z,30.76
2019-04-19T18:56:12.390Z,31.12
2019-04-19T18:58:41.019Z,31.38
2019-04-19T19:01:21.251Z,31.20
2019-04-19T19:03:46.218Z,31.46
2019-04-19T19:06:15.799Z,31.65
2019-04-19T19:08:52.588Z,31.45
2019-04-19T19:11:20.909Z,31.73
2019-04-19T19:13:49.406Z,31.64
2019-04-19T19:16:23.537Z,31.84
2019-04-19T19:18:53.949Z,31.44
2019-04-19T19:21:26.796Z,31.46
2019-04-19T19:24:18.372Z,31.45
2019-04-19T19:26:34.508Z,31.38
2019-04-19T19:28:58.701Z,31.29
2019-04-19T19:31:29.725Z,31.49
2019-04-19T19:34:03.634Z,31.38
2019-04-19T19:36:42.165Z,31.75
2019-04-19T19:39:16.573Z,31.53
2019-04-19T19:42:32.859Z,31.63
2019-04-19T19:44:31.052Z,31.66
2019-04-19T19:47:27.432Z,31.59
2019-04-19T19:49:48.408Z,31.98
2019-04-19T19:52:17.444Z,32.04
2019-04-19T19:54:54.253Z,31.91
2019-04-19T19:57:18.469Z,31.93
2019-04-19T19:59:37.781Z,31.76
2019-04-19T20:02:18.182Z,32.11
2019-04-19T20:04:40.529Z,32.21
2019-04-19T20:07:11.173Z,32.04
2019-04-19T20:09:40.788Z,32.07
2019-04-19T20:12:18.030Z,32.61
2019-04-19T20:14:43.507Z,32.99
2019-04-19T20:17:15.093Z,32.74
2019-04-19T20:19:48.272Z,32.92
2019-04-19T20:22:16.161Z,32.80
2019-04-19T20:24:59.331Z,32.43
2019-04-19T20:27:22.389Z,32.42
2019-04-19T20:29:55.514Z,32.49
2019-04-19T20:32:24.038Z,32.40
2019-04-19T20:34:52.559Z,32.96
2019-04-19T20:37:24.998Z,32.71
2019-04-19T20:39:57.261Z,32.74
2019-04-19T20:42:32.654Z,32.77
2019-04-19T20:45:04.646Z,33.01
2019-04-19T20:47:32.878Z,32.89
2019-04-19T20:50:16.283Z,33.13
2019-04-19T20:52:45.406Z,33.02
2019-04-19T20:55:28.458Z,33.74
2019-04-19T20:58:17.924Z,33.86
2019-04-19T21:00:37.622Z,33.98
2019-04-19T21:03:08.016Z,34.28
2019-04-19T21:05:42.663Z,34.65
2019-04-19T21:08:12.636Z,34.48
2019-04-19T21:10:49.916Z,34.31
2019-04-19T21:13:15.947Z,34.51
2019-04-19T21:15:52.005Z,34.38
2019-04-19T21:18:24.504Z,34.53
2019-04-19T21:20:54.867Z,34.75
2019-04-19T21:23:27.848Z,35.21
2019-04-19T21:26:00.410Z,35.14
2019-04-19T21:28:34.465Z,34.88
2019-04-19T21:31:02.848Z,35.37
2019-04-19T21:33:31.021Z,34.79
2019-04-19T21:36:05.737Z,34.70
2019-04-19T21:38:32.260Z,34.95
2019-04-19T21:41:12.146Z,34.85
2019-04-19T21:43:36.854Z,34.86
2019-04-19T21:46:05.586Z,34.73
2019-04-19T21:48:39.631Z,34.80
2019-04-19T21:51:10.825Z,35.23
2019-04-19T21:53:43.472Z,35.07
2019-04-19T21:56:16.075Z,35.75
2019-04-19T21:58:47.584Z,36.19
2019-04-19T22:01:17.001Z,36.60
2019-04-19T22:03:50.365Z,37.49
2019-04-19T22:06:24.082Z,37.19
2019-04-19T22:08:50.322Z,37.87
2019-04-19T22:11:20.578Z,36.18
2019-04-19T22:13:52.519Z,37.37
2019-04-19T22:16:31.372Z,37.50
2019-04-19T22:18:56.171Z,37.09
2019-04-19T22:21:30.519Z,37.70
2019-04-19T22:23:58.461Z,37.02
2019-04-19T22:26:32.833Z,36.15
2019-04-19T22:28:59.735Z,35.90
2019-04-19T22:31:33.992Z,36.69
2019-04-19T22:34:01.328Z,36.26
2019-04-19T22:36:40.042Z,35.77
2019-04-19T22:39:05.416Z,35.42
2019-04-19T22:41:34.857Z,36.16
2019-04-19T22:44:04.871Z,36.25
2019-04-19T22:46:41.584Z,36.14
2019-04-19T22:49:09.751Z,36.13
2019-04-19T22:51:38.393Z,36.64
2019-04-19T22:54:08.627Z,36.89
2019-04-19T22:56:52.080Z,36.39
2019-04-19T22:59:14.953Z,36.10
2019-04-19T23:01:57.342Z,35.75
2019-04-19T23:04:24.767Z,36.39
2019-04-19T23:06:58.839Z,36.38
2019-04-19T23:09:26.430Z,37.13
2019-04-19T23:11:57.497Z,37.11
2019-04-19T23:14:46.727Z,37.25
2019-04-19T23:17:19.808Z,36.76
2019-04-19T23:19:52.498Z,37.74
2019-04-19T23:22:30.820Z,37.51
2019-04-19T23:25:00.754Z,37.78
2019-04-19T23:27:36.765Z,37.17
2019-04-19T23:30:17.969Z,37.77
2019-04-19T23:32:45.784Z,37.20
2019-04-19T23:35:16.390Z,37.94
2019-04-19T23:37:47.250Z,38.13
2019-04-19T23:40:17.298Z,38.26
2019-04-19T23:42:49.212Z,38.53
2019-04-19T23:45:18.829Z,38.23
2019-04-19T23:47:51.837Z,38.29
2019-04-19T23:50:26.055Z,38.16
2019-04-19T23:52:57.446Z,38.47
2019-04-19T23:55:24.615Z,37.99
2019-04-19T23:57:56.253Z,38.28
